createdAt,value
2017-09-26T00:00:08.123Z,29.87
2017-09-26T00:02:36.500Z,30.40
2017-09-26T00:05:04.883Z,29.53
2017-09-26T00:07:33.247Z,28.23
2017-09-26T00:10:02.370Z,28.87
2017-09-26T00:12:30.744Z,32.67
2017-09-26T00:14:59.103Z,30.33
2017-09-26T00:17:27.624Z,28.10
2017-09-26T00:19:55.982Z,31.43
2017-09-26T00:22:24.683Z,28.70
2017-09-26T00:24:52.861Z,30.50
2017-09-26T00:27:21.234Z,27.73
2017-09-26T00:29:49.605Z,27.67
2017-09-26T00:32:18.087Z,29.20
2017-09-26T00:34:46.290Z,28.83
2017-09-26T00:37:14.531Z,26.80
2017-09-26T00:39:42.787Z,29.10
2017-09-26T00:42:11.146Z,28.37
2017-09-26T00:44:39.574Z,28.20
2017-09-26T00:47:07.940Z,27.00
2017-09-26T00:49:35.957Z,29.07
2017-09-26T00:52:04.428Z,28.37
2017-09-26T00:54:32.796Z,27.97
2017-09-26T00:57:01.239Z,26.83
2017-09-26T00:59:29.134Z,27.30
2017-09-26T01:01:57.314Z,30.43
2017-09-26T01:04:25.156Z,28.37
2017-09-26T01:10:05.925Z,27.23
2017-09-26T01:12:34.300Z,30.17
2017-09-26T01:15:02.667Z,26.83
2017-09-26T01:17:31.140Z,28.40
2017-09-26T01:19:59.311Z,26.87
2017-09-26T01:22:27.171Z,27.33
2017-09-26T01:24:55.534Z,29.13
2017-09-26T01:27:24.033Z,28.73
2017-09-26T01:29:53.125Z,27.70
2017-09-26T01:32:21.494Z,29.13
2017-09-26T01:34:49.875Z,26.60
2017-09-26T01:37:18.251Z,24.87
2017-09-26T01:39:47.527Z,25.13
2017-09-26T01:42:15.948Z,25.00
2017-09-26T01:44:44.504Z,24.23
2017-09-26T01:47:12.888Z,26.27
2017-09-26T01:49:41.060Z,26.77
2017-09-26T01:52:09.225Z,27.33
2017-09-26T01:54:37.397Z,26.30
2017-09-26T02:00:20.243Z,25.00
2017-09-26T02:02:48.599Z,27.20
2017-09-26T02:05:16.982Z,28.33
2017-09-26T02:07:45.389Z,28.57
2017-09-26T02:10:13.751Z,25.33
2017-09-26T02:12:42.824Z,26.80
2017-09-26T02:15:11.612Z,27.80
2017-09-26T02:17:39.997Z,24.20
2017-09-26T02:20:08.358Z,24.80
2017-09-26T02:22:36.718Z,26.10
2017-09-26T02:25:05.086Z,26.10
2017-09-26T02:27:33.451Z,23.73
2017-09-26T02:30:01.823Z,25.70
2017-09-26T02:32:30.187Z,28.27
2017-09-26T02:34:58.561Z,28.20
2017-09-26T02:37:27.125Z,26.43
2017-09-26T02:39:55.478Z,23.17
2017-09-26T02:42:24.106Z,26.43
2017-09-26T02:44:52.499Z,25.13
2017-09-26T02:47:21.120Z,25.43
2017-09-26T02:49:50.178Z,24.23
2017-09-26T02:52:18.529Z,26.30
2017-09-26T02:54:46.890Z,26.33
2017-09-26T02:57:15.266Z,24.93
2017-09-26T02:59:43.637Z,25.97
2017-09-26T03:02:12.015Z,26.30
2017-09-26T03:04:40.389Z,26.40
2017-09-26T03:07:08.756Z,24.13
2017-09-26T03:09:37.132Z,26.30
2017-09-26T03:12:05.494Z,26.30
2017-09-26T03:14:34.064Z,24.57
2017-09-26T03:17:02.410Z,25.43
2017-09-26T03:19:30.778Z,22.97
2017-09-26T03:21:59.138Z,25.77
2017-09-26T03:24:27.505Z,24.80
2017-09-26T03:26:56.045Z,22.60
2017-09-26T03:29:24.415Z,24.17
2017-09-26T03:31:52.594Z,24.03
2017-09-26T03:34:20.771Z,24.57
2017-09-26T03:36:48.942Z,24.23
2017-09-26T03:39:17.114Z,23.10
2017-09-26T03:41:45.493Z,23.40
2017-09-26T03:44:14.065Z,23.70
2017-09-26T03:46:42.250Z,24.03
2017-09-26T03:49:11.317Z,23.97
2017-09-26T03:51:40.735Z,24.47
2017-09-26T03:54:09.926Z,24.80
2017-09-26T03:56:38.297Z,24.30
2017-09-26T03:59:07.295Z,25.90
2017-09-26T04:01:35.706Z,24.50
2017-09-26T04:04:04.014Z,24.37
2017-09-26T04:06:33.331Z,25.27
2017-09-26T04:09:01.448Z,25.03
2017-09-26T04:11:31.542Z,24.47
2017-09-26T04:14:00.521Z,23.90
2017-09-26T04:16:28.916Z,24.10
2017-09-26T04:18:57.164Z,23.80
2017-09-26T04:21:25.441Z,23.17
2017-09-26T04:23:53.914Z,24.57
2017-09-26T04:26:22.283Z,23.90
2017-09-26T04:28:50.975Z,24.70
2017-09-26T04:31:19.582Z,26.50
2017-09-26T04:33:47.955Z,23.80
2017-09-26T04:36:16.340Z,24.17
2017-09-26T04:38:44.732Z,25.60
2017-09-26T04:41:13.097Z,23.93
2017-09-26T04:43:41.474Z,24.47
2017-09-26T04:46:09.904Z,24.50
2017-09-26T04:48:38.194Z,24.27
2017-09-26T04:51:06.791Z,24.30
2017-09-26T04:53:36.383Z,25.00
2017-09-26T04:56:05.100Z,24.77
2017-09-26T04:58:34.657Z,23.77
2017-09-26T05:01:02.966Z,26.30
2017-09-26T05:03:31.328Z,24.27
2017-09-26T05:05:59.693Z,23.30
2017-09-26T05:08:28.051Z,25.10
2017-09-26T05:10:56.415Z,23.80
2017-09-26T05:13:24.815Z,27.67
2017-09-26T05:15:53.289Z,22.43
2017-09-26T05:18:21.465Z,22.90
2017-09-26T05:20:49.833Z,22.23
2017-09-26T05:23:18.220Z,22.70
2017-09-26T05:25:46.659Z,21.50
2017-09-26T05:28:15.240Z,22.30
2017-09-26T05:30:43.594Z,19.20
2017-09-26T05:33:11.960Z,23.03
2017-09-26T05:35:40.334Z,21.20
2017-09-26T05:38:08.922Z,22.30
2017-09-26T05:40:37.100Z,21.40
2017-09-26T05:43:05.484Z,20.93
2017-09-26T05:45:34.063Z,23.93
2017-09-26T05:48:02.426Z,21.77
2017-09-26T05:50:30.809Z,21.73
2017-09-26T05:52:59.860Z,21.13
2017-09-26T05:55:28.525Z,21.30
2017-09-26T05:57:56.915Z,23.00
2017-09-26T06:00:25.275Z,21.07
2017-09-26T06:02:54.584Z,21.13
2017-09-26T06:05:22.780Z,19.97
2017-09-26T06:07:51.891Z,17.80
2017-09-26T06:10:20.300Z,21.00
2017-09-26T06:12:49.623Z,20.60
2017-09-26T06:15:18.049Z,19.43
2017-09-26T06:17:46.610Z,19.73
2017-09-26T06:20:15.177Z,22.10
2017-09-26T06:22:43.547Z,19.47
2017-09-26T06:25:12.221Z,19.80
2017-09-26T06:27:40.594Z,18.77
2017-09-26T06:30:08.947Z,19.30
2017-09-26T06:32:38.104Z,20.27
2017-09-26T06:35:06.285Z,18.23
2017-09-26T06:37:34.661Z,18.40
2017-09-26T06:40:03.040Z,19.73
2017-09-26T06:42:31.231Z,20.17
2017-09-26T06:44:59.485Z,19.17
2017-09-26T06:47:27.856Z,20.33
2017-09-26T06:49:57.154Z,19.17
2017-09-26T06:52:25.537Z,17.83
2017-09-26T06:54:53.943Z,18.93
2017-09-26T06:57:22.541Z,18.70
2017-09-26T06:59:51.535Z,21.33
2017-09-26T07:02:20.699Z,17.47
2017-09-26T07:04:51.462Z,18.50
2017-09-26T07:20:15.034Z,18.67
2017-09-26T07:22:43.477Z,19.60
2017-09-26T07:25:11.862Z,18.73
2017-09-26T07:27:40.235Z,17.60
2017-09-26T07:30:08.604Z,19.37
2017-09-26T07:32:36.977Z,20.90
2017-09-26T07:35:06.912Z,19.20
2017-09-26T07:37:35.274Z,19.70
2017-09-26T07:40:04.774Z,19.50
2017-09-26T07:42:33.665Z,17.10
2017-09-26T07:45:02.577Z,20.27
2017-09-26T07:47:32.500Z,20.50
2017-09-26T07:50:00.936Z,21.87
2017-09-26T07:52:29.322Z,19.20
2017-09-26T07:54:57.892Z,18.93
2017-09-26T07:57:26.262Z,18.73
2017-09-26T07:59:54.643Z,21.20
2017-09-26T08:02:23.739Z,21.27
2017-09-26T08:04:52.887Z,19.83
2017-09-26T08:07:23.531Z,18.57
2017-09-26T08:09:53.649Z,18.33
2017-09-26T08:12:22.794Z,19.87
2017-09-26T08:14:51.192Z,19.97
2017-09-26T08:17:19.560Z,21.50
2017-09-26T08:19:48.150Z,20.13
2017-09-26T08:22:17.422Z,20.43
2017-09-26T08:24:47.658Z,21.40
2017-09-26T08:27:16.065Z,21.87
2017-09-26T08:29:45.230Z,19.90
2017-09-26T08:32:13.775Z,19.77
2017-09-26T08:34:43.105Z,21.20
2017-09-26T08:37:11.568Z,22.10
2017-09-26T08:39:39.919Z,20.40
2017-09-26T08:42:09.319Z,20.23
2017-09-26T08:44:37.900Z,21.40
2017-09-26T08:47:07.215Z,21.10
2017-09-26T08:49:35.587Z,20.60
2017-09-26T08:52:05.509Z,19.67
2017-09-26T08:54:35.002Z,21.73
2017-09-26T08:57:03.374Z,18.70
2017-09-26T08:59:31.791Z,23.20
2017-09-26T09:02:01.413Z,22.00
2017-09-26T09:04:31.279Z,23.87
2017-09-26T09:07:00.555Z,19.87
2017-09-26T09:09:30.338Z,19.87
2017-09-26T09:12:00.617Z,22.17
2017-09-26T09:14:30.531Z,24.10
2017-09-26T09:16:58.905Z,20.53
2017-09-26T09:19:28.196Z,24.03
2017-09-26T09:21:57.387Z,25.70
2017-09-26T09:24:25.750Z,23.80
2017-09-26T09:26:54.183Z,23.93
2017-09-26T09:29:22.543Z,24.10
2017-09-26T09:31:53.530Z,24.33
2017-09-26T09:34:21.901Z,24.00
2017-09-26T09:36:51.094Z,22.70
2017-09-26T09:39:19.535Z,22.67
2017-09-26T09:41:47.914Z,21.83
2017-09-26T09:44:17.087Z,23.70
2017-09-26T09:46:46.127Z,25.07
2017-09-26T09:49:14.713Z,24.50
2017-09-26T09:51:43.171Z,22.40
2017-09-26T09:54:11.544Z,24.20
2017-09-26T09:56:40.302Z,23.00
2017-09-26T09:59:08.689Z,24.73
2017-09-26T10:01:37.072Z,23.60
2017-09-26T10:04:05.285Z,21.67
2017-09-26T10:06:33.763Z,20.90
2017-09-26T10:09:02.150Z,20.17
2017-09-26T10:11:30.534Z,20.90
2017-09-26T10:13:58.609Z,22.57
2017-09-26T10:16:27.002Z,22.77
2017-09-26T10:18:55.639Z,21.13
2017-09-26T10:21:25.506Z,20.93
2017-09-26T10:23:54.659Z,23.47
2017-09-26T10:26:23.018Z,23.00
2017-09-26T10:28:51.452Z,22.93
2017-09-26T10:31:19.854Z,23.30
2017-09-26T10:33:48.220Z,21.73
2017-09-26T10:36:16.635Z,22.50
2017-09-26T10:38:45.849Z,21.93
2017-09-26T10:41:14.248Z,22.07
2017-09-26T10:43:42.617Z,22.73
2017-09-26T10:46:10.990Z,25.73
2017-09-26T10:48:39.434Z,24.17
2017-09-26T10:51:07.815Z,24.87
2017-09-26T10:53:36.454Z,25.27
2017-09-26T10:56:04.844Z,25.00
2017-09-26T10:58:34.079Z,25.20
2017-09-26T11:01:02.467Z,22.30
2017-09-26T11:03:30.847Z,24.57
2017-09-26T11:05:59.208Z,24.00
2017-09-26T11:08:27.578Z,24.40
2017-09-26T11:10:56.040Z,24.10
2017-09-26T11:13:24.403Z,23.43
2017-09-26T11:15:52.997Z,23.70
2017-09-26T11:18:21.158Z,23.13
2017-09-26T11:20:49.357Z,24.23
2017-09-26T11:23:17.768Z,21.27
2017-09-26T11:25:46.126Z,21.90
2017-09-26T11:28:14.729Z,23.63
2017-09-26T11:30:43.107Z,21.80
2017-09-26T11:33:12.311Z,21.87
2017-09-26T11:35:40.674Z,22.97
2017-09-26T11:38:09.045Z,22.10
2017-09-26T11:40:37.423Z,21.30
2017-09-26T11:43:05.953Z,21.67
2017-09-26T11:45:34.441Z,22.33
2017-09-26T11:48:02.843Z,21.77
2017-09-26T11:50:31.222Z,23.83
2017-09-26T11:52:59.632Z,21.73
2017-09-26T11:55:28.003Z,21.40
2017-09-26T11:57:56.411Z,20.30
2017-09-26T12:00:24.590Z,20.90
2017-09-26T12:02:52.967Z,22.27
2017-09-26T12:05:21.343Z,20.10
2017-09-26T12:07:49.723Z,20.80
2017-09-26T12:10:18.323Z,20.47
2017-09-26T12:12:52.306Z,20.03
2017-09-26T12:15:20.661Z,20.37
2017-09-26T12:17:49.118Z,20.93
2017-09-26T12:20:17.504Z,19.13
2017-09-26T12:22:45.904Z,20.57
2017-09-26T12:25:14.411Z,19.03
2017-09-26T12:27:42.787Z,19.07
2017-09-26T12:30:11.189Z,17.93
2017-09-26T12:32:39.555Z,19.07
2017-09-26T12:35:07.926Z,19.70
2017-09-26T12:37:37.090Z,19.03
2017-09-26T12:40:05.276Z,18.77
2017-09-26T12:42:34.573Z,18.80
2017-09-26T12:45:03.071Z,18.73
2017-09-26T12:47:31.612Z,20.23
2017-09-26T12:50:00.192Z,20.60
2017-09-26T12:52:28.542Z,17.77
2017-09-26T12:54:57.870Z,18.83
2017-09-26T12:57:26.219Z,17.97
2017-09-26T12:59:54.619Z,18.50
2017-09-26T13:02:22.989Z,17.97
2017-09-26T13:04:51.366Z,17.30
2017-09-26T13:07:19.724Z,17.60
2017-09-26T13:09:48.090Z,19.13
2017-09-26T13:12:16.481Z,16.90
2017-09-26T13:14:44.671Z,15.97
2017-09-26T13:17:13.259Z,17.83
2017-09-26T13:19:41.621Z,19.53
2017-09-26T13:22:10.001Z,19.60
2017-09-26T13:24:38.375Z,19.37
2017-09-26T13:27:06.950Z,18.27
2017-09-26T13:29:35.315Z,18.37
2017-09-26T13:32:03.666Z,18.80
2017-09-26T13:34:32.025Z,18.40
2017-09-26T13:37:00.410Z,18.47
2017-09-26T13:39:28.781Z,18.67
2017-09-26T13:41:57.141Z,19.80
2017-09-26T13:44:25.510Z,19.13
2017-09-26T13:46:54.064Z,21.07
2017-09-26T13:49:22.661Z,20.63
2017-09-26T13:51:51.128Z,19.73
2017-09-26T13:54:19.805Z,20.23
2017-09-26T13:56:48.186Z,19.77
2017-09-26T13:59:16.774Z,18.77
2017-09-26T14:01:45.136Z,18.57
2017-09-26T14:04:13.500Z,18.70
2017-09-26T14:06:42.144Z,18.50
2017-09-26T14:09:10.679Z,19.30
2017-09-26T14:11:39.041Z,18.83
2017-09-26T14:14:07.639Z,18.93
2017-09-26T14:16:36.114Z,20.00
2017-09-26T14:19:04.472Z,19.33
2017-09-26T14:21:33.161Z,17.80
2017-09-26T14:24:01.801Z,16.20
2017-09-26T14:26:30.171Z,17.57
2017-09-26T14:28:58.607Z,17.80
2017-09-26T14:31:27.251Z,20.60
2017-09-26T14:33:55.665Z,19.87
2017-09-26T14:36:24.026Z,20.40
2017-09-26T14:38:52.415Z,17.90
2017-09-26T14:41:20.857Z,16.60
2017-09-26T14:43:49.234Z,18.27
2017-09-26T14:46:18.372Z,18.80
2017-09-26T14:48:47.736Z,18.87
2017-09-26T14:51:16.093Z,19.70
2017-09-26T14:53:44.475Z,19.60
2017-09-26T14:56:12.843Z,21.30
2017-09-26T14:58:41.199Z,22.70
2017-09-26T15:01:09.848Z,22.03
2017-09-26T15:03:38.216Z,22.10
2017-09-26T15:06:06.693Z,21.90
2017-09-26T15:08:35.389Z,20.77
2017-09-26T15:11:04.070Z,21.83
2017-09-26T15:13:32.497Z,22.00
2017-09-26T15:16:00.861Z,21.33
2017-09-26T15:18:29.202Z,20.57
2017-09-26T15:20:57.819Z,17.73
2017-09-26T15:23:26.201Z,14.40
2017-09-26T15:25:54.632Z,11.03
2017-09-26T15:28:23.111Z,12.50
2017-09-26T15:30:51.670Z,12.40
2017-09-26T15:33:20.066Z,12.07
2017-09-26T15:35:48.462Z,11.53
2017-09-26T15:38:16.860Z,10.63
2017-09-26T15:40:45.247Z,10.23
2017-09-26T15:43:13.622Z,10.23
2017-09-26T15:45:41.988Z,10.13
2017-09-26T15:48:10.381Z,9.27
2017-09-26T15:50:38.750Z,9.17
2017-09-26T15:53:07.158Z,9.50
2017-09-26T15:55:36.305Z,9.30
2017-09-26T15:58:04.703Z,10.30
2017-09-26T16:00:33.099Z,9.40
2017-09-26T16:03:01.479Z,9.83
2017-09-26T16:05:29.840Z,8.27
2017-09-26T16:07:58.215Z,7.20
2017-09-26T16:10:26.586Z,6.80
2017-09-26T16:12:54.936Z,7.10
2017-09-26T16:15:23.307Z,6.93
2017-09-26T16:17:51.665Z,7.23
2017-09-26T16:20:20.026Z,7.00
2017-09-26T16:22:48.397Z,7.17
2017-09-26T16:25:16.908Z,6.83
2017-09-26T16:27:45.276Z,5.90
2017-09-26T16:30:13.738Z,5.97
2017-09-26T16:32:42.173Z,6.20
2017-09-26T16:35:10.535Z,6.00
2017-09-26T16:37:38.913Z,6.03
2017-09-26T16:40:07.273Z,5.60
2017-09-26T16:42:35.649Z,5.47
2017-09-26T16:45:04.054Z,6.33
2017-09-26T16:47:32.440Z,6.60
2017-09-26T16:50:00.797Z,6.47
2017-09-26T16:52:29.155Z,5.50
2017-09-26T16:54:57.550Z,7.37
2017-09-26T16:57:25.913Z,7.07
2017-09-26T16:59:54.277Z,6.43
2017-09-26T17:02:22.827Z,6.30
2017-09-26T17:04:51.175Z,6.73
2017-09-26T17:07:20.305Z,6.40
2017-09-26T17:09:48.673Z,7.37
2017-09-26T17:12:17.057Z,6.70
2017-09-26T17:14:45.682Z,6.40
2017-09-26T17:17:14.051Z,7.30
2017-09-26T17:19:42.419Z,7.40
2017-09-26T17:22:12.495Z,6.73
2017-09-26T17:24:40.854Z,7.53
2017-09-26T17:27:09.223Z,6.57
2017-09-26T17:29:37.603Z,7.77
2017-09-26T17:32:05.984Z,6.70
2017-09-26T17:34:35.011Z,6.67
2017-09-26T17:37:03.387Z,6.17
2017-09-26T17:39:31.742Z,6.47
2017-09-26T17:42:00.121Z,6.70
2017-09-26T17:44:28.599Z,7.30
2017-09-26T17:46:56.984Z,7.10
2017-09-26T17:49:25.359Z,7.53
2017-09-26T17:51:53.762Z,6.60
2017-09-26T17:54:22.130Z,7.30
2017-09-26T17:56:50.500Z,6.80
2017-09-26T17:59:18.879Z,7.10
2017-09-26T18:01:47.105Z,6.90
2017-09-26T18:04:16.239Z,6.50
2017-09-26T18:06:44.799Z,7.37
2017-09-26T18:09:13.767Z,7.07
2017-09-26T18:11:42.270Z,6.93
2017-09-26T18:14:10.655Z,6.70
2017-09-26T18:16:39.037Z,8.43
2017-09-26T18:19:07.411Z,7.10
2017-09-26T18:21:35.790Z,7.20
2017-09-26T18:24:04.360Z,7.47
2017-09-26T18:26:32.756Z,8.23
2017-09-26T18:29:01.828Z,7.20
2017-09-26T18:31:30.211Z,7.57
2017-09-26T18:33:58.583Z,7.57
2017-09-26T18:36:26.967Z,8.00
2017-09-26T18:38:56.013Z,7.00
2017-09-26T18:41:24.416Z,7.30
2017-09-26T18:43:52.792Z,7.00
2017-09-26T18:46:21.170Z,7.13
2017-09-26T18:48:49.560Z,7.50
2017-09-26T18:51:18.125Z,6.67
2017-09-26T18:53:46.485Z,7.10
2017-09-26T18:56:14.881Z,8.47
2017-09-26T18:58:43.550Z,7.17
2017-09-26T19:01:12.458Z,7.17
2017-09-26T19:03:40.929Z,7.80
2017-09-26T19:06:10.091Z,7.27
2017-09-26T19:08:38.467Z,7.80
2017-09-26T19:11:06.653Z,7.97
2017-09-26T19:13:35.152Z,8.07
2017-09-26T19:16:03.522Z,9.00
2017-09-26T19:18:32.048Z,7.80
2017-09-26T19:21:00.506Z,8.73
2017-09-26T19:23:28.857Z,8.40
2017-09-26T19:25:57.879Z,8.27
2017-09-26T19:28:26.271Z,8.90
2017-09-26T19:30:54.702Z,8.47
2017-09-26T19:33:23.101Z,8.07
2017-09-26T19:35:51.464Z,7.70
2017-09-26T19:38:19.853Z,8.97
2017-09-26T19:40:48.032Z,8.50
2017-09-26T19:43:16.440Z,8.83
2017-09-26T19:45:44.810Z,8.83
2017-09-26T19:48:13.186Z,8.10
2017-09-26T19:50:41.564Z,8.60
2017-09-26T19:53:09.951Z,9.00
2017-09-26T19:55:38.557Z,8.80
2017-09-26T19:58:07.110Z,8.60
2017-09-26T20:00:36.309Z,8.40
2017-09-26T20:03:04.707Z,9.00
2017-09-26T20:05:33.155Z,8.40
2017-09-26T20:08:01.570Z,8.83
2017-09-26T20:10:29.953Z,8.13
2017-09-26T20:12:58.347Z,8.20
2017-09-26T20:15:26.725Z,8.50
2017-09-26T20:17:56.610Z,8.83
2017-09-26T20:20:25.196Z,8.07
2017-09-26T20:22:53.560Z,8.30
2017-09-26T20:25:21.947Z,8.00
2017-09-26T20:27:50.390Z,8.33
2017-09-26T20:30:18.844Z,8.73
2017-09-26T20:32:47.245Z,8.40
2017-09-26T20:35:15.637Z,8.20
2017-09-26T20:37:44.029Z,8.57
2017-09-26T20:40:12.414Z,8.43
2017-09-26T20:42:40.880Z,8.90
2017-09-26T20:45:09.258Z,8.20
2017-09-26T20:47:37.616Z,8.57
2017-09-26T20:50:05.973Z,8.67
2017-09-26T20:52:35.303Z,8.50
2017-09-26T20:55:03.690Z,9.13
2017-09-26T20:57:31.901Z,7.70
2017-09-26T21:00:01.761Z,8.30
2017-09-26T21:02:30.139Z,8.53
2017-09-26T21:04:58.719Z,7.87
2017-09-26T21:07:27.342Z,7.80
2017-09-26T21:09:57.428Z,8.13
2017-09-26T21:12:25.804Z,9.00
2017-09-26T21:14:54.170Z,9.03
2017-09-26T21:17:22.534Z,7.63
2017-09-26T21:19:50.908Z,8.50
2017-09-26T21:22:19.291Z,7.87
2017-09-26T21:24:47.925Z,7.90
2017-09-26T21:27:16.323Z,8.73
2017-09-26T21:29:45.532Z,8.50
2017-09-26T21:32:13.911Z,8.20
2017-09-26T21:34:42.265Z,7.80
2017-09-26T21:37:10.678Z,8.33
2017-09-26T21:39:39.135Z,9.00
2017-09-26T21:42:07.507Z,7.77
2017-09-26T21:44:35.884Z,8.83
2017-09-26T21:47:05.186Z,8.07
2017-09-26T21:49:34.272Z,8.57
2017-09-26T21:52:03.626Z,8.20
2017-09-26T21:54:32.103Z,8.03
2017-09-26T21:57:00.553Z,7.67
2017-09-26T21:59:28.918Z,8.00
2017-09-26T22:01:57.323Z,7.40
2017-09-26T22:04:25.696Z,8.10
2017-09-26T22:06:54.072Z,8.30
2017-09-26T22:09:22.436Z,8.07
2017-09-26T22:11:50.820Z,8.10
2017-09-26T22:14:19.198Z,7.77
2017-09-26T22:16:47.816Z,7.77
2017-09-26T22:19:16.974Z,7.77
2017-09-26T22:21:45.332Z,7.53
2017-09-26T22:24:13.814Z,8.27
2017-09-26T22:26:42.173Z,8.07
2017-09-26T22:29:10.553Z,7.70
2017-09-26T22:31:38.950Z,8.40
2017-09-26T22:34:07.614Z,7.63
2017-09-26T22:36:36.311Z,7.97
2017-09-26T22:39:03.803Z,8.17
2017-09-26T22:41:32.159Z,8.70
2017-09-26T22:44:00.518Z,8.10
2017-09-26T22:46:28.898Z,9.30
2017-09-26T22:48:57.368Z,8.70
2017-09-26T22:51:25.829Z,8.90
2017-09-26T22:53:54.633Z,9.10
2017-09-26T22:56:23.015Z,9.87
2017-09-26T22:58:51.399Z,9.20
2017-09-26T23:01:19.791Z,8.93
2017-09-26T23:03:48.159Z,8.83
2017-09-26T23:06:16.328Z,9.40
2017-09-26T23:08:44.898Z,9.97
2017-09-26T23:11:13.264Z,8.80
2017-09-26T23:13:41.655Z,9.93
2017-09-26T23:16:10.098Z,9.50
2017-09-26T23:18:38.494Z,9.70
2017-09-26T23:21:06.952Z,9.20
2017-09-26T23:23:36.073Z,9.80
2017-09-26T23:26:04.463Z,9.00
2017-09-26T23:28:33.046Z,9.43
2017-09-26T23:31:01.403Z,8.87
2017-09-26T23:33:29.884Z,9.17
2017-09-26T23:35:58.356Z,8.90
2017-09-26T23:38:26.746Z,9.40
2017-09-26T23:40:55.110Z,9.70
2017-09-26T23:43:23.485Z,8.60
2017-09-26T23:45:51.962Z,8.67
2017-09-26T23:48:20.337Z,9.47
2017-09-26T23:50:48.735Z,9.20
2017-09-26T23:53:16.901Z,8.40
2017-09-26T23:55:45.091Z,8.20
2017-09-26T23:58:13.468Z,9.50
